Time;durP1;ratioP1;P1;durP2;ratioP2;P2;SDS_P1;SDS_P2;PMS_P1;PMS_P2;Temp;Humidity;BMP_temperature;BMP_pressure;BME280_temperature;BME280_humidity;BME280_pressure;Samples;Min_cycle;Max_cycle;Signal;HPM_P1;HPM_P2
2022/12/02 00:00:25;;;;;;;38.00;6.32;;;20.50;53.20;;;;;;5058223;28;20515;-65
2022/12/02 00:02:53;;;;;;;38.33;6.90;;;20.30;52.80;;;;;;5062538;28;20595;-66
2022/12/02 00:05:27;;;;;;;47.70;6.68;;;20.30;53.80;;;;;;5059921;28;20104;-67
2022/12/02 00:07:57;;;;;;;32.35;6.38;;;20.20;53.70;;;;;;5057901;28;20435;-66
2022/12/02 00:10:23;;;;;;;30.98;7.03;;;20.20;53.40;;;;;;5059232;28;20064;-66
2022/12/02 00:12:49;;;;;;;;;;;20.10;53.30;;;;;;5066165;28;20069;-66
2022/12/02 00:15:41;;;;;;;35.50;6.03;;;20.00;53.90;;;;;;5059226;28;19984;-67
2022/12/02 00:18:11;;;;;;;36.15;17.45;;;19.90;54.00;;;;;;5058748;28;20103;-65
2022/12/02 00:20:38;;;;;;;35.03;6.18;;;19.80;54.40;;;;;;5061815;28;20083;-67
2022/12/02 00:23:05;;;;;;;31.85;7.40;;;19.80;54.90;;;;;;5059208;28;20086;-66
2022/12/02 00:25:32;;;;;;;35.20;6.55;;;19.60;55.30;;;;;;5058038;28;20108;-66
2022/12/02 00:27:59;;;;;;;32.13;6.95;;;19.50;55.50;;;;;;5060404;28;20508;-65
2022/12/02 00:30:25;;;;;;;45.55;8.23;;;19.40;55.60;;;;;;5057714;28;20073;-68
2022/12/02 00:32:52;;;;;;;29.88;7.72;;;19.30;55.60;;;;;;5056928;28;20073;-66
2022/12/02 00:35:19;;;;;;;39.72;7.57;;;19.20;56.00;;;;;;5054652;28;20113;-67
2022/12/02 00:37:45;;;;;;;32.20;7.88;;;19.10;56.30;;;;;;5058361;28;20476;-66
2022/12/02 00:40:12;;;;;;;45.67;9.05;;;19.00;56.60;;;;;;5057551;28;20065;-68
2022/12/02 00:42:39;;;;;;;44.13;9.32;;;18.80;56.70;;;;;;5062698;28;20092;-66
2022/12/02 00:47:52;;;;;;;35.65;8.50;;;18.70;57.20;;;;;;5069453;22;20183;-65
2022/12/02 00:50:18;;;;;;;37.88;9.70;;;18.50;57.50;;;;;;5029356;28;20070;-67
2022/12/02 00:52:45;;;;;;;38.30;8.30;;;18.50;57.60;;;;;;5029510;28;20383;-64
2022/12/02 00:55:11;;;;;;;44.40;9.75;;;18.40;57.60;;;;;;5029426;28;20089;-66
2022/12/02 00:57:37;;;;;;;41.45;12.63;;;18.40;57.50;;;;;;5029096;28;20074;-66
2022/12/02 01:00:05;;;;;;;61.40;13.90;;;18.30;57.60;;;;;;5029303;28;20070;-66
2022/12/02 01:02:31;;;;;;;56.03;12.35;;;18.20;58.00;;;;;;5029300;28;20682;-66
2022/12/02 01:04:58;;;;;;;54.60;12.20;;;18.20;58.60;;;;;;5029252;28;20167;-66
2022/12/02 01:07:24;;;;;;;52.55;11.18;;;18.10;58.70;;;;;;5028280;28;20078;-64
2022/12/02 01:09:51;;;;;;;47.97;10.05;;;18.00;58.90;;;;;;5028971;28;20086;-65
2022/12/02 01:12:17;;;;;;;51.00;10.73;;;17.90;59.10;;;;;;5028272;28;20070;-65
2022/12/02 01:14:43;;;;;;;61.95;11.15;;;17.90;59.20;;;;;;5029594;28;20491;-66
2022/12/02 01:17:10;;;;;;;55.70;10.88;;;17.80;59.40;;;;;;5029836;28;20078;-66
2022/12/02 01:19:36;;;;;;;52.83;11.02;;;17.70;59.50;;;;;;5029470;28;20531;-68
2022/12/02 01:22:03;;;;;;;57.30;10.88;;;17.60;59.50;;;;;;5029500;28;20460;-67
2022/12/02 01:24:29;;;;;;;52.33;11.20;;;17.60;59.90;;;;;;5029398;28;20140;-67
2022/12/02 01:26:55;;;;;;;50.17;12.73;;;17.60;60.00;;;;;;5033527;28;20078;-67
2022/12/02 01:29:22;;;;;;;77.15;12.38;;;17.50;60.00;;;;;;5033357;28;20086;-67
2022/12/02 01:31:48;;;;;;;73.28;12.00;;;17.50;60.40;;;;;;5033191;28;20466;-66
2022/12/02 01:34:14;;;;;;;58.63;10.00;;;17.50;60.90;;;;;;5033151;28;20153;-66
2022/12/02 01:36:41;;;;;;;60.67;10.68;;;17.40;61.20;;;;;;5033126;28;20066;-68
2022/12/02 01:39:07;;;;;;;;;;;17.40;61.80;;;;;;5032350;28;20070;-66
2022/12/02 01:41:33;;;;;;;48.90;10.48;;;17.30;61.60;;;;;;5033361;28;19965;-68
2022/12/02 01:43:59;;;;;;;52.80;10.35;;;17.20;61.90;;;;;;5033519;28;20156;-65
2022/12/02 01:46:26;;;;;;;51.70;10.82;;;17.20;62.40;;;;;;5033261;28;20497;-66
2022/12/02 01:48:52;;;;;;;56.10;10.05;;;17.10;62.90;;;;;;5033098;28;20106;-66
2022/12/02 01:51:19;;;;;;;58.35;12.85;;;17.10;63.60;;;;;;5033041;28;20542;-66
2022/12/02 01:53:45;;;;;;;49.20;12.57;;;16.90;62.80;;;;;;5033220;28;20086;-68
2022/12/02 01:56:12;;;;;;;64.07;11.77;;;16.90;63.10;;;;;;5032761;28;20105;-65
2022/12/02 01:58:38;;;;;;;54.88;10.75;;;16.90;63.90;;;;;;5033138;28;20100;-68
2022/12/02 02:01:25;;;;;;;61.88;12.00;;;16.90;64.10;;;;;;5031121;28;20427;-66
2022/12/02 02:03:52;;;;;;;70.40;11.73;;;16.90;64.50;;;;;;5031931;28;20078;-68
2022/12/02 02:06:18;;;;;;;62.53;10.85;;;16.90;64.90;;;;;;5032852;28;20117;-65
2022/12/02 02:08:44;;;;;;;51.10;10.75;;;16.80;65.30;;;;;;5030900;28;20465;-66
2022/12/02 02:11:11;;;;;;;56.45;11.02;;;16.80;66.00;;;;;;5032328;28;20070;-68
2022/12/02 02:13:38;;;;;;;62.22;10.48;;;16.80;67.00;;;;;;5032966;28;20082;-66
2022/12/02 02:16:04;;;;;;;59.08;9.52;;;16.70;67.50;;;;;;5031173;28;20561;-68
2022/12/02 02:18:31;;;;;;;48.50;9.10;;;16.70;67.50;;;;;;5032614;28;20153;-66
2022/12/02 02:20:59;;;;;;;44.22;8.73;;;16.70;67.70;;;;;;5032478;28;20076;-69
2022/12/02 02:23:27;;;;;;;56.67;9.45;;;16.70;67.60;;;;;;5032520;28;20128;-67
2022/12/02 02:25:56;;;;;;;49.67;9.25;;;16.60;68.00;;;;;;5032195;28;20132;-65
2022/12/02 02:28:23;;;;;;;46.78;8.90;;;16.60;68.50;;;;;;5031573;28;20082;-67
2022/12/02 02:30:52;;;;;;;56.40;11.52;;;16.60;68.40;;;;;;5030586;28;20157;-66
2022/12/02 02:33:20;;;;;;;64.93;10.63;;;16.50;68.40;;;;;;5032138;28;20543;-65
2022/12/02 02:35:47;;;;;;;53.05;9.35;;;16.50;68.40;;;;;;5032602;28;20074;-66
2022/12/02 02:38:23;;;;;;;24.70;7.97;;;16.50;68.30;;;;;;5032100;28;20117;-66
2022/12/02 02:40:50;;;;;;;33.92;7.40;;;16.50;68.10;;;;;;5032324;28;20131;-65
2022/12/02 02:43:19;;;;;;;27.98;7.10;;;16.40;68.10;;;;;;5032262;28;20534;-66
2022/12/02 02:45:46;;;;;;;26.38;6.95;;;16.40;68.20;;;;;;5032549;28;20105;-65
2022/12/02 02:48:14;;;;;;;28.58;6.95;;;16.30;68.00;;;;;;5032196;28;20114;-66
2022/12/02 02:50:43;;;;;;;22.42;6.22;;;16.40;67.80;;;;;;5032079;28;20467;-68
2022/12/02 02:53:11;;;;;;;23.70;5.93;;;16.40;67.50;;;;;;5031145;28;20577;-66
2022/12/02 02:55:37;;;;;;;30.38;7.78;;;16.30;66.80;;;;;;5032504;28;20538;-66
2022/12/02 02:58:14;;;;;;;31.27;6.47;;;16.30;66.70;;;;;;5031274;28;20070;-66
2022/12/02 03:00:59;;;;;;;40.45;6.68;;;16.30;66.70;;;;;;5031932;28;20074;-62
2022/12/02 03:03:30;;;;;;;21.15;5.50;;;16.30;66.50;;;;;;5032233;28;20086;-64
2022/12/02 03:05:58;;;;;;;22.92;5.68;;;16.30;66.20;;;;;;5029996;28;20555;-66
2022/12/02 03:08:27;;;;;;;16.73;6.15;;;16.30;65.90;;;;;;5031973;28;20089;-63
2022/12/02 03:10:55;;;;;;;24.55;5.20;;;16.30;65.90;;;;;;5032169;28;20085;-64
2022/12/02 03:13:22;;;;;;;22.50;5.40;;;16.20;65.80;;;;;;5032202;28;20089;-64
2022/12/02 03:15:49;;;;;;;24.80;4.97;;;16.20;65.80;;;;;;5032593;28;20175;-65
2022/12/02 03:18:16;;;;;;;17.70;5.32;;;16.20;65.80;;;;;;5032175;28;20077;-65
2022/12/02 03:20:42;;;;;;;20.45;4.78;;;16.20;66.20;;;;;;5032006;28;20070;-65
2022/12/02 03:23:09;;;;;;;18.15;4.85;;;16.10;66.20;;;;;;5031978;28;20074;-64
2022/12/02 03:25:36;;;;;;;13.73;4.60;;;16.10;66.20;;;;;;5032071;28;20592;-66
2022/12/02 03:28:03;;;;;;;30.17;6.70;;;16.10;66.60;;;;;;5031399;28;20128;-65
2022/12/02 03:30:30;;;;;;;21.95;4.95;;;15.90;67.90;;;;;;5031698;28;20588;-65
2022/12/02 03:32:58;;;;;;;25.10;6.68;;;15.90;68.30;;;;;;5031660;28;20165;-65
2022/12/02 03:35:25;;;;;;;20.58;5.57;;;15.80;69.00;;;;;;5030956;28;20082;-65
2022/12/02 03:37:52;;;;;;;18.77;5.07;;;15.70;69.30;;;;;;5031408;28;20070;-64
2022/12/02 03:40:18;;;;;;;14.00;5.28;;;15.70;69.50;;;;;;5031679;28;20322;-64
2022/12/02 03:42:45;;;;;;;15.23;5.13;;;15.60;69.70;;;;;;5031301;28;20427;-64
2022/12/02 03:45:11;;;;;;;;;;;15.60;70.00;;;;;;5032478;28;20192;-64
2022/12/02 03:47:38;;;;;;;15.48;4.80;;;15.50;70.10;;;;;;5031670;28;19972;-65
2022/12/02 03:50:06;;;;;;;19.73;4.65;;;15.60;70.30;;;;;;5029285;28;20090;-65
2022/12/02 03:52:32;;;;;;;11.68;4.88;;;15.60;70.10;;;;;;5031179;28;20089;-64
2022/12/02 03:54:59;;;;;;;13.35;4.30;;;15.50;70.70;;;;;;5031284;28;20558;-65
2022/12/02 03:57:26;;;;;;;15.07;4.53;;;15.50;70.80;;;;;;5031200;28;20167;-65
2022/12/02 03:59:52;;;;;;;19.33;5.07;;;15.50;70.20;;;;;;5029178;28;20531;-69
2022/12/02 04:02:19;;;;;;;16.60;4.80;;;15.50;70.20;;;;;;5030669;28;20082;-65
2022/12/02 04:04:45;;;;;;;;;;;15.40;71.10;;;;;;5030910;28;20105;-65
2022/12/02 04:07:11;;;;;;;19.73;8.38;;;15.40;70.60;;;;;;5030230;28;19967;-66
2022/12/02 04:09:37;;;;;;;;;;;15.30;70.60;;;;;;5030489;28;20176;-65
2022/12/02 04:12:04;;;;;;;19.00;5.13;;;15.30;70.30;;;;;;5029943;28;20032;-66
2022/12/02 04:14:30;;;;;;;18.80;5.85;;;15.20;70.30;;;;;;5029405;28;20070;-65
2022/12/02 04:16:56;;;;;;;;;;;15.20;69.90;;;;;;5030374;28;20094;-67
2022/12/02 04:19:23;;;;;;;21.67;5.05;;;15.20;69.90;;;;;;5030624;28;20429;-66
2022/12/02 04:21:49;;;;;;;19.13;4.35;;;15.20;69.90;;;;;;5029899;28;20088;-67
2022/12/02 04:24:15;;;;;;;;;;;15.20;70.00;;;;;;5030542;28;20078;-67
2022/12/02 04:26:42;;;;;;;21.33;5.32;;;15.10;70.00;;;;;;5029872;28;19957;-67
2022/12/02 04:29:08;;;;;;;22.10;5.05;;;15.10;70.50;;;;;;5029651;28;20156;-65
2022/12/02 04:31:34;;;;;;;;;;;15.10;70.60;;;;;;5030359;28;20073;-68
2022/12/02 04:34:00;;;;;;;14.85;4.63;;;15.10;70.70;;;;;;5029845;28;20118;-68
2022/12/02 04:36:27;;;;;;;;;;;15.10;70.70;;;;;;5042181;28;20076;-63
2022/12/02 04:38:53;;;;;;;15.55;4.80;;;15.00;70.80;;;;;;5031894;28;20465;-69
2022/12/02 04:41:19;;;;;;;;;;;15.00;71.10;;;;;;5030055;28;20530;-66
2022/12/02 04:43:45;;;;;;;18.95;5.35;;;15.00;71.10;;;;;;5029542;28;19983;-68
2022/12/02 04:46:11;;;;;;;;;;;15.00;71.20;;;;;;5030373;28;20074;-67
2022/12/02 04:48:38;;;;;;;13.45;4.82;;;14.90;71.00;;;;;;5029598;28;20437;-68
2022/12/02 04:51:04;;;;;;;;;;;14.90;71.10;;;;;;5029373;28;20120;-67
2022/12/02 04:53:30;;;;;;;8.13;3.75;;;14.90;71.20;;;;;;5029872;28;19957;-67
2022/12/02 04:55:56;;;;;;;;;;;14.90;71.30;;;;;;5029578;28;20127;-66
2022/12/02 04:58:22;;;;;;;16.27;4.45;;;14.90;71.40;;;;;;5029212;28;19965;-67
2022/12/02 05:00:48;;;;;;;;;;;14.90;71.30;;;;;;5029983;28;20123;-64
2022/12/02 05:03:15;;;;;;;20.25;5.18;;;14.90;71.30;;;;;;5029566;28;19958;-67
2022/12/02 05:05:41;;;;;;;;;;;14.90;71.40;;;;;;5029980;28;20090;-66
2022/12/02 05:08:07;;;;;;;17.45;4.72;;;14.90;71.40;;;;;;5029736;28;19957;-69
2022/12/02 05:10:33;;;;;;;;;;;14.90;71.30;;;;;;5029759;28;20074;-67
2022/12/02 05:13:00;;;;;;;18.40;4.82;;;14.90;71.40;;;;;;5029347;28;20011;-65
2022/12/02 05:15:26;;;;;;;;;;;14.90;71.70;;;;;;5030232;28;20077;-67
2022/12/02 05:17:52;;;;;;;12.10;4.15;;;14.90;71.90;;;;;;5030048;28;19958;-66
2022/12/02 05:20:18;;;;;;;18.10;4.18;;;14.90;71.80;;;;;;5029318;28;20080;-65
2022/12/02 05:22:44;;;;;;;;;;;14.90;71.40;;;;;;5029121;28;20069;-65
2022/12/02 05:25:11;;;;;;;11.52;3.70;;;14.90;71.30;;;;;;5029447;28;19972;-67
2022/12/02 05:27:37;;;;;;;12.20;4.45;;;14.90;71.30;;;;;;5028678;28;20100;-68
2022/12/02 05:30:04;;;;;;;;;;;14.80;71.30;;;;;;5030130;28;20566;-66
2022/12/02 05:32:30;;;;;;;14.25;3.50;;;14.80;71.50;;;;;;5028579;28;19968;-67
2022/12/02 05:34:57;;;;;;;20.65;4.88;;;14.90;71.90;;;;;;5029889;28;20128;-65
2022/12/02 05:37:23;;;;;;;;;;;14.90;72.30;;;;;;5030215;28;20426;-67
2022/12/02 05:39:49;;;;;;;13.75;4.32;;;14.90;72.10;;;;;;5029473;28;20024;-64
2022/12/02 05:42:16;;;;;;;18.73;4.18;;;14.90;72.00;;;;;;5029854;28;20074;-67
2022/12/02 05:44:42;;;;;;;;;;;14.90;71.80;;;;;;5029242;28;20066;-67
2022/12/02 05:47:12;;;;;;;14.13;4.03;;;14.80;72.10;;;;;;5030027;28;20048;-65
2022/12/02 05:49:40;;;;;;;19.23;3.35;;;14.80;72.40;;;;;;5030127;28;20116;-67
2022/12/02 05:52:30;;;;;;;15.18;3.92;;;14.80;72.40;;;;;;5029741;28;20070;-67
2022/12/02 05:55:01;;;;;;;13.18;3.90;;;14.80;72.20;;;;;;5029054;28;20074;-66
2022/12/02 05:57:30;;;;;;;10.45;3.55;;;14.80;72.40;;;;;;5028825;28;20097;-66
2022/12/02 06:00:20;;;;;;;13.13;3.85;;;14.80;72.50;;;;;;5028468;28;20074;-65
2022/12/02 06:02:53;;;;;;;14.93;4.10;;;14.80;72.40;;;;;;5019348;28;20092;-66
2022/12/02 06:05:52;;;;;;;13.50;3.75;;;14.70;72.70;;;;;;5027504;28;20094;-65
2022/12/02 06:08:33;;;;;;;17.27;4.00;;;14.80;73.10;;;;;;4982885;28;20486;-65
2022/12/02 06:11:02;;;;;;;11.38;3.20;;;14.80;72.50;;;;;;4984217;28;20118;-67
2022/12/02 06:13:31;;;;;;;18.65;3.30;;;14.80;72.60;;;;;;4990533;28;20094;-67
2022/12/02 06:16:00;;;;;;;13.80;4.07;;;14.80;73.50;;;;;;4991448;28;20637;-67
2022/12/02 06:18:31;;;;;;;14.65;3.92;;;14.80;72.60;;;;;;4991722;28;20206;-69
2022/12/02 06:21:01;;;;;;;10.68;3.60;;;14.80;72.70;;;;;;4991498;28;20079;-67
2022/12/02 06:23:31;;;;;;;11.45;3.50;;;14.70;72.70;;;;;;4990352;28;20187;-67
2022/12/02 06:25:58;;;;;;;10.98;2.78;;;14.60;73.00;;;;;;4974220;28;20174;-68
2022/12/02 06:28:36;;;;;;;8.90;2.90;;;14.50;73.10;;;;;;4991843;28;20122;-68
2022/12/02 06:31:14;;;;;;;11.13;3.33;;;14.60;73.20;;;;;;4991124;28;20110;-68
2022/12/02 06:33:41;;;;;;;14.90;3.83;;;14.50;73.60;;;;;;4990908;28;20416;-69
2022/12/02 06:36:17;;;;;;;8.57;4.35;;;14.40;74.70;;;;;;4990139;28;20075;-65
2022/12/02 06:39:14;;;;;;;11.68;4.65;;;14.30;75.50;;;;;;4973670;28;20647;-66
2022/12/02 06:41:41;;;;;;;20.05;5.88;;;14.30;75.60;;;;;;4921941;29;20574;-66
2022/12/02 06:47:36;;;;;;;10.20;3.08;;;14.30;75.40;;;;;;4972546;28;19965;-68
2022/12/02 06:50:05;;;;;;;6.85;3.10;;;14.30;75.60;;;;;;4967086;28;20118;-69
2022/12/02 06:52:43;;;;;;;14.45;8.60;;;14.20;75.80;;;;;;4971248;28;20090;-68
2022/12/02 06:55:22;;;;;;;10.18;3.47;;;14.20;75.80;;;;;;4971276;28;20091;-67
2022/12/02 06:57:48;;;;;;;14.40;3.30;;;14.20;75.80;;;;;;4970696;28;20094;-65
2022/12/02 07:00:15;;;;;;;;;;;14.20;75.90;;;;;;4972114;28;20075;-66
2022/12/02 07:02:41;;;;;;;12.15;3.92;;;14.10;75.90;;;;;;4971453;28;19959;-68
2022/12/02 07:05:10;;;;;;;11.35;3.45;;;14.10;75.90;;;;;;4972636;28;20424;-68
2022/12/02 07:07:36;;;;;;;7.35;3.58;;;14.20;75.90;;;;;;4973374;28;20079;-65
2022/12/02 07:10:06;;;;;;;;;;;14.20;75.90;;;;;;4971741;28;20091;-66
2022/12/02 07:12:36;;;;;;;6.80;3.33;;;14.20;75.40;;;;;;4971460;28;20009;-64
2022/12/02 07:15:11;;;;;;;10.85;3.45;;;14.20;75.60;;;;;;4971102;28;20079;-67
2022/12/02 07:17:41;;;;;;;10.18;3.53;;;14.20;75.30;;;;;;4982382;28;20085;-66
2022/12/02 07:20:10;;;;;;;8.23;3.97;;;14.20;75.10;;;;;;5032083;28;20082;-66
2022/12/02 07:22:58;;;;;;;10.93;4.15;;;14.20;75.20;;;;;;5030566;28;20090;-71
2022/12/02 07:25:38;;;;;;;10.85;3.50;;;14.30;75.80;;;;;;5030420;28;20082;-71
2022/12/02 07:28:31;;;;;;;7.70;2.92;;;14.60;74.60;;;;;;5027768;28;20074;-70
2022/12/02 07:31:17;;;;;;;12.73;3.35;;;14.70;73.10;;;;;;5025998;28;20172;-73
2022/12/02 07:33:44;;;;;;;12.10;3.45;;;14.90;72.90;;;;;;5029844;28;20132;-73
2022/12/02 07:36:11;;;;;;;12.75;3.42;;;14.80;72.00;;;;;;5029681;28;20066;-71
2022/12/02 07:38:37;;;;;;;11.55;3.25;;;14.70;71.00;;;;;;5031831;28;20457;-70
2022/12/02 07:41:04;;;;;;;;;;;14.70;71.20;;;;;;5032050;28;20096;-73
2022/12/02 07:43:31;;;;;;;16.05;3.60;;;14.70;70.90;;;;;;5031725;28;19957;-69
2022/12/02 07:45:58;;;;;;;4.30;2.42;;;14.70;70.80;;;;;;5031826;28;20109;-71
2022/12/02 07:48:25;;;;;;;13.35;3.17;;;14.70;70.60;;;;;;5031878;28;20595;-72
2022/12/02 07:50:52;;;;;;;6.88;2.60;;;14.80;70.60;;;;;;5030075;28;20416;-72
2022/12/02 07:53:18;;;;;;;8.43;2.85;;;14.90;70.40;;;;;;5031544;28;20081;-72
2022/12/02 07:55:44;;;;;;;;;;;15.00;70.20;;;;;;5031890;28;20070;-72
2022/12/02 07:58:11;;;;;;;10.60;3.03;;;14.90;69.80;;;;;;5031272;28;19957;-69
2022/12/02 08:00:37;;;;;;;;;;;15.00;70.20;;;;;;5031933;28;20066;-71
2022/12/02 08:03:03;;;;;;;7.28;2.70;;;14.90;69.90;;;;;;5031048;28;20104;-70
2022/12/02 08:05:29;;;;;;;10.38;3.05;;;15.00;69.90;;;;;;5031237;28;20089;-71
2022/12/02 08:07:55;;;;;;;;;;;15.00;69.80;;;;;;5031880;28;20066;-73
2022/12/02 08:10:22;;;;;;;7.25;2.47;;;15.00;70.00;;;;;;5031116;28;19980;-71
2022/12/02 08:12:48;;;;;;;9.90;3.13;;;15.00;69.90;;;;;;5031089;28;20442;-71
2022/12/02 08:15:14;;;;;;;;;;;15.00;69.90;;;;;;5031559;28;20109;-73
2022/12/02 08:17:42;;;;;;;9.40;3.92;;;15.00;70.20;;;;;;5031254;28;19954;-71
2022/12/02 08:20:11;;;;;;;13.13;3.50;;;15.10;70.10;;;;;;5031000;28;20113;-71
2022/12/02 08:22:37;;;;;;;11.57;3.30;;;15.00;70.60;;;;;;5031013;28;20596;-71
2022/12/02 08:25:03;;;;;;;;;;;15.00;70.50;;;;;;5031395;28;20457;-71
2022/12/02 08:27:30;;;;;;;9.13;2.80;;;14.90;70.70;;;;;;5029235;28;19982;-69
2022/12/02 08:29:56;;;;;;;11.23;3.15;;;14.80;70.90;;;;;;5030577;28;20117;-70
2022/12/02 08:32:22;;;;;;;;;;;14.80;71.80;;;;;;5031136;28;20074;-69
2022/12/02 08:34:49;;;;;;;12.73;5.00;;;14.80;71.40;;;;;;5029068;28;20419;-72
2022/12/02 08:37:15;;;;;;;;;;;14.80;71.50;;;;;;5031285;28;20078;-72
2022/12/02 08:39:42;;;;;;;11.82;4.88;;;14.80;71.80;;;;;;5046179;28;20368;-73
2022/12/02 08:42:08;;;;;;;13.85;4.63;;;14.70;71.90;;;;;;5030636;28;20513;-71
2022/12/02 08:44:35;;;;;;;10.27;4.30;;;14.60;72.30;;;;;;5030883;28;20077;-71
2022/12/02 08:47:02;;;;;;;13.98;4.90;;;14.40;72.60;;;;;;5030323;28;20593;-70
2022/12/02 08:49:28;;;;;;;15.32;4.75;;;14.40;73.40;;;;;;5031074;28;20168;-70
2022/12/02 08:51:54;;;;;;;;;;;14.30;73.40;;;;;;5030834;28;20593;-71
2022/12/02 08:54:21;;;;;;;14.23;4.43;;;14.30;73.30;;;;;;5030634;28;20050;-73
2022/12/02 08:56:48;;;;;;;8.50;4.05;;;14.20;74.10;;;;;;5030299;28;20136;-73
2022/12/02 08:59:15;;;;;;;13.88;4.53;;;14.00;74.50;;;;;;5030078;28;20523;-70
2022/12/02 09:01:42;;;;;;;21.42;6.90;;;14.00;75.00;;;;;;5030345;28;20090;-69
2022/12/02 09:04:08;;;;;;;22.42;5.82;;;13.90;74.70;;;;;;5028891;28;20555;-73
2022/12/02 09:06:34;;;;;;;;;;;13.90;75.30;;;;;;5030877;28;20166;-72
2022/12/02 09:09:01;;;;;;;13.52;5.22;;;14.00;75.40;;;;;;5030427;28;19984;-70
2022/12/02 09:11:27;;;;;;;20.75;6.30;;;13.90;75.60;;;;;;5030479;28;20075;-70
2022/12/02 09:13:53;;;;;;;;;;;13.90;75.70;;;;;;5030715;28;20412;-71
2022/12/02 09:16:19;;;;;;;18.02;5.60;;;13.80;76.00;;;;;;5030057;28;20068;-71
2022/12/02 09:18:46;;;;;;;;;;;13.70;76.40;;;;;;5031344;28;20067;-67
2022/12/02 09:21:12;;;;;;;12.73;5.55;;;13.70;77.00;;;;;;5030040;28;20025;-72
2022/12/02 09:23:38;;;;;;;;;;;13.70;76.90;;;;;;5030756;28;20097;-70
2022/12/02 09:26:04;;;;;;;26.38;6.03;;;13.60;77.10;;;;;;5030039;28;19957;-72
2022/12/02 09:28:30;;;;;;;;;;;13.50;76.90;;;;;;5030300;28;20090;-73
2022/12/02 09:30:57;;;;;;;20.50;5.25;;;13.50;77.60;;;;;;5029868;28;20316;-69
2022/12/02 09:33:23;;;;;;;20.25;5.43;;;13.50;77.80;;;;;;5029878;28;20078;-72
2022/12/02 09:35:50;;;;;;;;;;;13.30;77.70;;;;;;5030257;28;20074;-70
2022/12/02 09:38:16;;;;;;;21.13;5.80;;;13.40;78.40;;;;;;5030114;28;19957;-70
2022/12/02 09:40:42;;;;;;;;;;;13.40;78.60;;;;;;5030176;28;20074;-70
2022/12/02 09:43:09;;;;;;;20.35;6.63;;;13.40;78.90;;;;;;5029885;28;19957;-73
2022/12/02 09:45:35;;;;;;;12.93;5.95;;;13.40;78.90;;;;;;5029711;28;20066;-67
2022/12/02 09:48:01;;;;;;;;;;;13.30;78.90;;;;;;5031611;28;20112;-70
2022/12/02 09:50:28;;;;;;;14.73;6.95;;;13.20;78.50;;;;;;5033971;28;19980;-70
2022/12/02 09:52:57;;;;;;;;;;;13.20;79.30;;;;;;5034104;28;20070;-73
2022/12/02 09:55:24;;;;;;;16.70;6.85;;;13.20;79.50;;;;;;5033786;28;19958;-69
2022/12/02 09:57:50;;;;;;;;;;;13.10;79.80;;;;;;5034009;28;20585;-70
2022/12/02 10:00:20;;;;;;;18.63;6.55;;;13.10;80.40;;;;;;5033217;28;19958;-75
2022/12/02 10:02:52;;;;;;;22.42;7.28;;;13.00;80.50;;;;;;5033478;28;20105;-70
2022/12/02 10:05:24;;;;;;;22.27;7.53;;;13.00;79.80;;;;;;5031516;28;20151;-70
2022/12/02 10:07:54;;;;;;;27.25;10.23;;;12.80;80.30;;;;;;5033085;28;20161;-69
2022/12/02 10:10:43;;;;;;;36.00;11.95;;;12.80;80.40;;;;;;5033119;28;20112;-70
2022/12/02 10:13:18;;;;;;;48.40;13.68;;;12.80;80.70;;;;;;5031854;28;20159;-72
2022/12/02 10:15:45;;;;;;;58.15;15.48;;;12.90;80.60;;;;;;5032832;28;20073;-68
2022/12/02 10:18:24;;;;;;;48.78;16.42;;;12.90;80.80;;;;;;5032232;28;20077;-69
2022/12/02 10:20:51;;;;;;;52.67;18.23;;;12.90;80.90;;;;;;5032780;28;20081;-71
2022/12/02 10:23:27;;;;;;;60.15;19.23;;;12.80;80.80;;;;;;5033114;28;20085;-70
2022/12/02 10:26:14;;;;;;;63.55;22.20;;;12.90;81.10;;;;;;5032858;28;20077;-73
2022/12/02 10:28:41;;;;;;;77.95;23.25;;;12.80;81.30;;;;;;5031991;28;20097;-71
2022/12/02 10:31:09;;;;;;;84.45;24.50;;;12.70;81.80;;;;;;5047148;28;20074;-70
2022/12/02 10:33:38;;;;;;;89.75;23.73;;;12.70;82.10;;;;;;5032757;28;20490;-71
2022/12/02 10:36:06;;;;;;;64.55;22.25;;;12.70;82.60;;;;;;5032689;28;20093;-71
2022/12/02 10:38:44;;;;;;;90.30;24.92;;;12.70;82.80;;;;;;5032943;28;20077;-71
2022/12/02 10:41:24;;;;;;;85.60;24.30;;;12.70;82.80;;;;;;5031974;28;21705;-70
2022/12/02 10:43:53;;;;;;;76.60;22.20;;;12.70;83.00;;;;;;5031766;28;20074;-71
2022/12/02 10:46:21;;;;;;;56.33;21.75;;;12.70;83.10;;;;;;5033007;28;20558;-72
2022/12/02 10:48:48;;;;;;;61.85;20.15;;;12.60;83.10;;;;;;5031936;28;20113;-71
2022/12/02 10:51:17;;;;;;;65.97;21.23;;;12.50;83.90;;;;;;5032762;28;20527;-70
2022/12/02 10:53:46;;;;;;;58.65;22.40;;;12.50;84.00;;;;;;5032478;28;20177;-70
2022/12/02 10:56:19;;;;;;;69.00;22.95;;;12.60;84.10;;;;;;5032330;28;20074;-73
2022/12/02 10:58:46;;;;;;;56.25;21.52;;;12.60;84.40;;;;;;5031796;28;20077;-69
2022/12/02 11:01:13;;;;;;;77.75;24.20;;;12.60;84.80;;;;;;5032180;28;20088;-71
2022/12/02 11:03:40;;;;;;;58.28;22.45;;;12.60;84.30;;;;;;5032566;28;20084;-70
2022/12/02 11:06:20;;;;;;;60.55;23.08;;;12.60;84.30;;;;;;5031105;28;20121;-70
2022/12/02 11:08:48;;;;;;;69.78;27.17;;;12.50;84.60;;;;;;5030748;28;20124;-70
2022/12/02 11:11:25;;;;;;;78.63;31.20;;;12.50;84.90;;;;;;5032112;28;20066;-70
2022/12/02 11:13:54;;;;;;;83.50;29.13;;;12.40;85.10;;;;;;5046603;28;20098;-69
2022/12/02 11:16:27;;;;;;;71.88;28.23;;;12.40;85.30;;;;;;5031129;28;20066;-71
2022/12/02 11:19:10;;;;;;;82.40;29.02;;;12.40;85.10;;;;;;5032603;28;20104;-70
2022/12/02 11:21:42;;;;;;;79.90;25.38;;;12.40;85.20;;;;;;5031910;28;20078;-67
2022/12/02 11:24:31;;;;;;;77.50;27.77;;;12.30;86.10;;;;;;5032295;28;20076;-68
2022/12/02 11:27:04;;;;;;;69.28;26.40;;;12.40;86.00;;;;;;5020440;28;20446;-70
2022/12/02 11:29:42;;;;;;;67.13;26.42;;;12.30;86.20;;;;;;5030871;28;20571;-69
2022/12/02 11:32:27;;;;;;;64.28;26.13;;;12.30;85.90;;;;;;5031701;28;20139;-70
2022/12/02 11:34:59;;;;;;;66.80;26.40;;;12.30;86.50;;;;;;5030846;28;20096;-68
2022/12/02 11:37:35;;;;;;;62.83;24.70;;;12.30;87.10;;;;;;5031902;28;20161;-72
2022/12/02 11:40:09;;;;;;;56.92;25.10;;;12.20;87.10;;;;;;5031523;28;20109;-69
2022/12/02 11:42:38;;;;;;;63.50;29.05;;;12.20;87.10;;;;;;5030656;28;20088;-67
2022/12/02 11:45:16;;;;;;;80.47;30.35;;;12.20;87.20;;;;;;5030507;28;20074;-72
2022/12/02 11:47:57;;;;;;;77.25;29.05;;;12.20;87.30;;;;;;5031437;28;20201;-71
2022/12/02 11:50:33;;;;;;;74.57;28.92;;;12.20;87.20;;;;;;5032232;28;20081;-71
2022/12/02 11:53:04;;;;;;;61.83;29.05;;;12.20;87.40;;;;;;5031084;28;20131;-71
2022/12/02 11:55:34;;;;;;;68.22;29.30;;;12.10;87.80;;;;;;5031151;28;20719;-71
2022/12/02 11:58:03;;;;;;;76.35;31.25;;;12.10;88.40;;;;;;5031703;28;20431;-72
2022/12/02 12:00:32;;;;;;;75.93;29.10;;;12.10;88.60;;;;;;5029897;28;20106;-73
2022/12/02 12:03:25;;;;;;;71.35;29.60;;;12.00;88.70;;;;;;5030594;28;20086;-71
2022/12/02 12:06:11;;;;;;;84.78;30.65;;;11.90;89.50;;;;;;5028323;28;20132;-68
2022/12/02 12:08:41;;;;;;;64.53;29.70;;;11.80;90.20;;;;;;5030663;28;20589;-72
2022/12/02 12:11:33;;;;;;;76.68;32.90;;;11.90;90.20;;;;;;5030383;28;20066;-70
2022/12/02 12:14:12;;;;;;;76.15;34.17;;;11.80;90.00;;;;;;5029632;28;20081;-70
2022/12/02 12:16:46;;;;;;;71.47;33.45;;;11.90;90.20;;;;;;5031067;28;20621;-71
2022/12/02 12:19:12;;;;;;;101.03;31.23;;;11.80;90.50;;;;;;5031942;28;20081;-69
2022/12/02 12:21:49;;;;;;;76.18;35.50;;;11.80;90.50;;;;;;5030896;28;20434;-70
2022/12/02 12:24:22;;;;;;;;;;;11.90;90.70;;;;;;5029459;28;20506;-71
2022/12/02 12:27:09;;;;;;;79.30;33.17;;;11.80;90.50;;;;;;5030802;28;19965;-69
2022/12/02 12:29:38;;;;;;;66.18;30.90;;;11.70;90.60;;;;;;5030497;28;20173;-73
2022/12/02 12:32:06;;;;;;;84.80;31.67;;;11.80;90.80;;;;;;5030882;28;20110;-70
2022/12/02 12:34:33;;;;;;;86.15;32.58;;;11.90;90.80;;;;;;5030876;28;20072;-68
2022/12/02 12:37:00;;;;;;;86.57;33.17;;;11.90;90.90;;;;;;5030365;28;20070;-71
2022/12/02 12:39:26;;;;;;;72.80;31.05;;;11.90;90.80;;;;;;5028992;28;20096;-70
2022/12/02 12:41:52;;;;;;;;;;;11.90;90.70;;;;;;5031198;28;20076;-72
2022/12/02 12:44:18;;;;;;;69.20;33.03;;;12.00;90.70;;;;;;5030463;28;19958;-71
2022/12/02 12:46:44;;;;;;;;;;;11.80;90.80;;;;;;5031145;28;20413;-72
2022/12/02 12:49:11;;;;;;;68.85;31.33;;;11.90;91.10;;;;;;5031180;28;20488;-71
2022/12/02 12:51:37;;;;;;;;;;;11.70;91.10;;;;;;5031216;28;20099;-71
2022/12/02 12:54:04;;;;;;;78.82;34.17;;;11.80;91.40;;;;;;5030405;28;19957;-69
2022/12/02 12:56:30;;;;;;;76.35;34.28;;;11.80;91.40;;;;;;5030465;28;20144;-71
2022/12/02 12:58:56;;;;;;;;;;;11.80;91.40;;;;;;5030970;28;20081;-71
2022/12/02 13:01:22;;;;;;;64.10;32.72;;;11.80;91.50;;;;;;5030297;28;19973;-72
2022/12/02 13:03:48;;;;;;;;;;;11.70;91.50;;;;;;5029574;28;20173;-68